createdAt,value
2019-01-17T00:01:16.578Z,6.20
2019-01-17T00:03:54.030Z,6.20
2019-01-17T00:06:52.844Z,6.20
2019-01-17T00:09:57.404Z,6.20
2019-01-17T00:12:35.748Z,6.10
2019-01-17T00:15:24.365Z,6.10
2019-01-17T00:18:11.701Z,6.10
2019-01-17T00:21:13.266Z,6.20
2019-01-17T00:24:11.950Z,6.20
2019-01-17T00:26:47.688Z,6.20
2019-01-17T00:29:32.687Z,6.20
2019-01-17T00:32:14.900Z,6.20
2019-01-17T00:35:07.512Z,6.20
2019-01-17T00:37:54.408Z,6.20
2019-01-17T00:40:31.864Z,6.20
2019-01-17T00:43:14.760Z,6.10
2019-01-17T00:46:13.714Z,6.10
2019-01-17T00:49:15.432Z,6.00
2019-01-17T00:52:05.313Z,6.00
2019-01-17T00:54:48.280Z,6.00
2019-01-17T00:57:35.150Z,5.90
2019-01-17T01:00:14.326Z,5.90
2019-01-17T01:03:00.418Z,5.90
2019-01-17T01:05:48.683Z,5.90
2019-01-17T01:08:33.794Z,5.80
2019-01-17T01:11:32.585Z,5.90
2019-01-17T01:14:17.674Z,5.90
2019-01-17T01:17:24.335Z,5.90
2019-01-17T01:20:23.040Z,5.90
2019-01-17T01:23:07.136Z,5.90
2019-01-17T01:25:53.984Z,5.90
2019-01-17T01:28:49.876Z,5.90
2019-01-17T01:31:37.216Z,5.90
2019-01-17T01:34:35.956Z,6.00
2019-01-17T01:37:21.268Z,6.00
2019-01-17T01:40:19.798Z,6.10
2019-01-17T01:43:09.820Z,6.00
2019-01-17T01:46:05.202Z,6.00
2019-01-17T01:48:50.768Z,6.00
2019-01-17T01:51:29.668Z,6.00
2019-01-17T01:53:56.955Z,6.00
2019-01-17T01:56:24.177Z,6.00
2019-01-17T01:58:51.499Z,6.00
2019-01-17T02:01:18.738Z,6.00
2019-01-17T02:03:46.102Z,6.00
2019-01-17T02:06:13.500Z,6.00
2019-01-17T02:08:40.913Z,6.00
2019-01-17T02:11:08.424Z,6.00
2019-01-17T02:13:35.733Z,6.00
2019-01-17T02:16:03.108Z,5.90
2019-01-17T02:18:30.417Z,5.90
2019-01-17T02:20:57.654Z,5.80
2019-01-17T02:23:24.967Z,5.80
2019-01-17T02:25:52.205Z,5.80
2019-01-17T02:28:19.544Z,5.80
2019-01-17T02:30:46.970Z,5.70
2019-01-17T02:33:14.300Z,5.70
2019-01-17T02:35:41.641Z,5.70
2019-01-17T02:38:08.885Z,5.70
2019-01-17T02:40:36.331Z,5.70
2019-01-17T02:43:03.731Z,5.70
2019-01-17T02:45:30.964Z,5.70
2019-01-17T02:47:58.254Z,5.70
2019-01-17T02:50:25.568Z,5.70
2019-01-17T02:52:52.808Z,5.70
2019-01-17T02:55:20.180Z,5.70
2019-01-17T02:57:47.492Z,5.70
2019-01-17T03:00:15.599Z,5.70
2019-01-17T03:02:43.036Z,5.70
2019-01-17T03:05:10.614Z,5.70
2019-01-17T03:07:38.007Z,5.70
2019-01-17T03:10:08.721Z,5.70
2019-01-17T03:12:36.118Z,5.80
2019-01-17T03:15:03.552Z,5.70
2019-01-17T03:17:30.860Z,5.70
2019-01-17T03:19:58.285Z,5.70
2019-01-17T03:22:25.639Z,5.80
2019-01-17T03:24:53.045Z,5.80
2019-01-17T03:27:20.348Z,5.80
2019-01-17T03:29:47.684Z,5.80
2019-01-17T03:32:14.984Z,5.80
2019-01-17T03:34:42.206Z,5.70
2019-01-17T03:37:09.646Z,5.70
2019-01-17T03:39:37.063Z,5.70
2019-01-17T03:42:04.402Z,5.70
2019-01-17T03:44:31.710Z,5.70
2019-01-17T03:46:58.947Z,5.70
2019-01-17T03:49:26.258Z,5.70
2019-01-17T03:51:53.494Z,5.70
2019-01-17T03:54:20.900Z,5.80
2019-01-17T03:56:48.220Z,5.80
2019-01-17T03:59:15.522Z,5.80
2019-01-17T04:01:42.850Z,5.80
2019-01-17T04:04:10.153Z,5.80
2019-01-17T04:06:37.525Z,5.90
2019-01-17T04:09:05.976Z,5.90
2019-01-17T04:11:33.191Z,5.90
2019-01-17T04:14:00.558Z,5.90
2019-01-17T04:16:27.893Z,5.90
2019-01-17T04:18:55.394Z,6.00
2019-01-17T04:21:22.820Z,6.00
2019-01-17T04:23:52.215Z,6.00
2019-01-17T04:26:21.472Z,6.00
2019-01-17T04:28:48.752Z,6.00
2019-01-17T04:31:16.066Z,6.00
2019-01-17T04:33:43.310Z,6.00
2019-01-17T04:36:10.668Z,6.00
2019-01-17T04:38:37.991Z,5.90
2019-01-17T04:41:05.390Z,5.90
2019-01-17T04:43:32.804Z,5.90
2019-01-17T04:46:00.210Z,5.90
2019-01-17T04:48:27.523Z,5.90
2019-01-17T04:50:54.854Z,5.90
2019-01-17T04:53:22.188Z,5.90
2019-01-17T04:55:49.462Z,5.90
2019-01-17T04:58:16.669Z,5.90
2019-01-17T05:00:44.034Z,5.90
2019-01-17T05:03:11.494Z,5.90
2019-01-17T05:05:38.706Z,6.00
2019-01-17T05:08:06.149Z,6.00
2019-01-17T05:10:33.792Z,6.00
2019-01-17T05:13:01.210Z,6.00
2019-01-17T05:15:28.554Z,6.00
2019-01-17T05:17:55.810Z,6.00
2019-01-17T05:20:23.288Z,6.00
2019-01-17T05:22:50.508Z,6.00
2019-01-17T05:25:17.818Z,6.00
2019-01-17T05:27:45.173Z,6.00
2019-01-17T05:30:16.428Z,6.00
2019-01-17T05:32:43.826Z,6.00
2019-01-17T05:35:11.323Z,5.90
2019-01-17T05:37:38.747Z,5.90
2019-01-17T05:40:08.931Z,5.90
2019-01-17T05:42:36.307Z,5.90
2019-01-17T05:45:04.394Z,5.90
2019-01-17T05:47:31.718Z,5.80
2019-01-17T05:49:59.071Z,5.80
2019-01-17T05:52:26.497Z,5.80
2019-01-17T05:54:53.765Z,5.70
2019-01-17T05:57:21.132Z,5.80
2019-01-17T05:59:48.508Z,5.70
2019-01-17T06:02:15.779Z,5.70
2019-01-17T06:04:43.167Z,5.70
2019-01-17T06:07:10.503Z,5.70
2019-01-17T06:09:37.891Z,5.70
2019-01-17T06:12:05.189Z,5.70
2019-01-17T06:14:32.564Z,5.70
2019-01-17T06:16:59.889Z,5.70
2019-01-17T06:19:27.272Z,5.70
2019-01-17T06:21:54.585Z,5.70
2019-01-17T06:24:22.003Z,5.70
2019-01-17T06:26:49.389Z,5.70
2019-01-17T06:29:16.781Z,5.70
2019-01-17T06:31:44.163Z,5.60
2019-01-17T06:34:11.531Z,5.60
2019-01-17T06:36:38.887Z,5.60
2019-01-17T06:39:07.483Z,5.60
2019-01-17T06:41:34.861Z,5.60
2019-01-17T06:44:02.186Z,5.50
2019-01-17T06:46:29.491Z,5.60
2019-01-17T06:48:56.809Z,5.60
2019-01-17T06:51:24.128Z,5.50
2019-01-17T06:53:51.348Z,5.50
2019-01-17T06:56:18.694Z,5.50
2019-01-17T06:58:46.048Z,5.60
2019-01-17T07:01:13.461Z,5.60
2019-01-17T07:03:40.656Z,5.60
2019-01-17T07:06:07.992Z,5.60
2019-01-17T07:08:35.346Z,5.60
2019-01-17T07:11:02.700Z,5.60
2019-01-17T07:13:30.078Z,5.60
2019-01-17T07:15:58.544Z,5.60
2019-01-17T07:18:25.784Z,5.70
2019-01-17T07:20:53.426Z,5.70
2019-01-17T07:23:20.740Z,5.70
2019-01-17T07:25:48.079Z,5.70
2019-01-17T07:28:15.442Z,5.70
2019-01-17T07:30:42.660Z,5.70
2019-01-17T07:33:09.954Z,5.70
2019-01-17T07:35:37.368Z,5.70
2019-01-17T07:38:04.727Z,5.70
2019-01-17T07:40:31.928Z,5.70
2019-01-17T07:42:59.288Z,5.70
2019-01-17T07:45:28.148Z,5.70
2019-01-17T07:47:55.401Z,5.70
2019-01-17T07:50:22.838Z,5.60
2019-01-17T07:52:50.205Z,5.60
2019-01-17T07:55:17.416Z,5.50
2019-01-17T07:57:44.852Z,5.50
2019-01-17T08:00:15.048Z,5.50
2019-01-17T08:02:42.368Z,5.50
2019-01-17T08:05:09.830Z,5.50
2019-01-17T08:07:37.037Z,5.50
2019-01-17T08:10:06.070Z,5.50
2019-01-17T08:12:33.258Z,5.50
2019-01-17T08:15:00.563Z,5.60
2019-01-17T08:17:27.905Z,5.70
2019-01-17T08:19:57.440Z,5.80
2019-01-17T08:22:24.660Z,5.80
2019-01-17T08:24:52.040Z,5.90
2019-01-17T08:27:19.392Z,5.90
2019-01-17T08:29:46.793Z,6.00
2019-01-17T08:32:14.027Z,6.00
2019-01-17T08:34:41.373Z,6.00
2019-01-17T08:37:08.656Z,6.00
2019-01-17T08:39:35.912Z,6.00
2019-01-17T08:42:03.345Z,6.10
2019-01-17T08:44:30.642Z,6.10
2019-01-17T08:46:58.127Z,6.20
2019-01-17T08:49:25.494Z,6.20
2019-01-17T08:51:52.912Z,6.10
2019-01-17T08:54:20.304Z,6.10
2019-01-17T08:56:47.650Z,6.10
2019-01-17T08:59:14.884Z,6.10
2019-01-17T09:01:42.222Z,6.10
2019-01-17T09:04:09.797Z,6.10
2019-01-17T09:06:37.010Z,6.10
2019-01-17T09:09:07.545Z,6.20
2019-01-17T09:11:34.969Z,6.20
2019-01-17T09:14:02.192Z,6.30
2019-01-17T09:16:29.424Z,6.30
2019-01-17T09:18:56.692Z,6.30
2019-01-17T09:21:24.050Z,6.30
2019-01-17T09:23:51.388Z,6.30
2019-01-17T09:26:18.744Z,6.30
2019-01-17T09:28:46.262Z,6.40
2019-01-17T09:31:13.554Z,6.50
2019-01-17T09:33:40.779Z,6.50
2019-01-17T09:36:07.999Z,6.50
2019-01-17T09:38:35.331Z,6.50
2019-01-17T09:41:02.687Z,6.40
2019-01-17T09:43:30.060Z,6.50
2019-01-17T09:45:57.342Z,6.50
2019-01-17T09:48:24.617Z,6.40
2019-01-17T09:50:51.977Z,6.40
2019-01-17T09:53:19.245Z,6.40
2019-01-17T09:55:46.584Z,6.50
2019-01-17T09:58:13.916Z,6.50
2019-01-17T10:00:41.142Z,6.50
2019-01-17T10:03:08.490Z,6.40
2019-01-17T10:05:35.760Z,6.40
2019-01-17T10:08:03.249Z,6.50
2019-01-17T10:10:30.496Z,6.60
2019-01-17T10:12:57.829Z,6.60
2019-01-17T10:15:52.812Z,6.60
2019-01-17T10:18:46.767Z,6.70
2019-01-17T10:22:06.462Z,6.70
2019-01-17T10:25:15.481Z,6.80
2019-01-17T10:27:58.471Z,6.90
2019-01-17T10:31:26.013Z,7.00
2019-01-17T10:34:22.865Z,7.00
2019-01-17T10:37:28.736Z,7.10
2019-01-17T10:40:38.285Z,7.20
2019-01-17T10:43:15.811Z,7.20
2019-01-17T10:46:09.991Z,7.10
2019-01-17T10:49:40.216Z,7.10
2019-01-17T10:52:36.147Z,7.00
2019-01-17T10:55:42.123Z,6.90
2019-01-17T10:58:17.393Z,6.90
2019-01-17T11:01:26.217Z,6.90
2019-01-17T11:04:38.219Z,6.90
2019-01-17T11:07:53.765Z,6.80
2019-01-17T11:10:52.223Z,6.90
2019-01-17T11:14:07.377Z,7.00
2019-01-17T11:17:12.815Z,7.00
2019-01-17T11:20:23.462Z,7.10
2019-01-17T11:23:29.731Z,7.10
2019-01-17T11:26:41.837Z,7.20
2019-01-17T11:29:41.325Z,7.20
2019-01-17T11:32:53.885Z,7.20
2019-01-17T11:36:01.731Z,7.20
2019-01-17T11:39:01.467Z,6.90
2019-01-17T11:41:52.891Z,6.70
2019-01-17T11:44:49.009Z,6.60
2019-01-17T11:48:10.117Z,6.50
2019-01-17T11:50:58.156Z,6.50
2019-01-17T11:54:19.317Z,6.50
2019-01-17T11:57:27.481Z,6.50
2019-01-17T12:00:10.886Z,6.50
2019-01-17T12:03:21.826Z,6.50
2019-01-17T12:05:49.144Z,6.50
2019-01-17T12:08:16.474Z,6.50
2019-01-17T12:10:46.326Z,6.40
2019-01-17T12:13:17.370Z,6.30
2019-01-17T12:15:42.783Z,6.10
2019-01-17T12:18:10.123Z,5.80
2019-01-17T12:20:37.476Z,5.70
2019-01-17T12:23:04.846Z,5.50
2019-01-17T12:25:32.218Z,5.50
2019-01-17T12:27:59.503Z,5.40
2019-01-17T12:30:26.705Z,5.40
2019-01-17T12:32:54.047Z,5.40
2019-01-17T12:35:21.373Z,5.30
2019-01-17T12:37:48.785Z,5.20
2019-01-17T12:40:16.011Z,5.10
2019-01-17T12:42:43.345Z,5.10
2019-01-17T12:45:10.684Z,5.00
2019-01-17T12:47:37.897Z,4.90
2019-01-17T12:50:11.413Z,4.90
2019-01-17T12:52:38.645Z,4.90
2019-01-17T12:55:06.281Z,4.80
2019-01-17T12:57:33.645Z,4.80
2019-01-17T13:00:07.499Z,4.80
2019-01-17T13:02:30.021Z,4.80
2019-01-17T13:04:57.387Z,4.80
2019-01-17T13:07:24.730Z,4.80
2019-01-17T13:09:52.131Z,4.80
2019-01-17T13:12:19.458Z,4.80
2019-01-17T13:14:46.672Z,4.80
2019-01-17T13:17:13.990Z,4.80
2019-01-17T13:19:41.334Z,4.80
2019-01-17T13:22:08.877Z,4.90
2019-01-17T13:24:36.221Z,4.90
2019-01-17T13:27:03.774Z,4.90
2019-01-17T13:29:31.257Z,4.90
2019-01-17T13:31:58.685Z,4.90
2019-01-17T13:34:26.009Z,4.90
2019-01-17T13:36:53.227Z,4.90
2019-01-17T13:39:20.563Z,5.00
2019-01-17T13:41:47.873Z,5.00
2019-01-17T13:44:15.212Z,5.00
2019-01-17T13:46:42.503Z,4.90
2019-01-17T13:49:09.839Z,4.80
2019-01-17T13:51:37.151Z,4.80
2019-01-17T13:54:04.428Z,4.80
2019-01-17T13:56:32.052Z,4.80
2019-01-17T13:58:59.377Z,4.80
2019-01-17T14:01:26.667Z,4.80
2019-01-17T14:03:53.951Z,4.80
2019-01-17T14:06:21.300Z,4.70
2019-01-17T14:08:48.729Z,4.70
2019-01-17T14:11:15.945Z,4.70
2019-01-17T14:13:43.198Z,4.70
2019-01-17T14:16:10.541Z,4.70
2019-01-17T14:18:37.983Z,4.80
2019-01-17T14:21:05.384Z,4.80
2019-01-17T14:23:32.819Z,4.80
2019-01-17T14:26:00.128Z,4.80
2019-01-17T14:28:27.339Z,4.80
2019-01-17T14:30:54.828Z,4.80
2019-01-17T14:33:22.168Z,4.80
2019-01-17T14:35:49.514Z,4.80
2019-01-17T14:38:16.728Z,4.80
2019-01-17T14:40:44.174Z,4.80
2019-01-17T14:43:11.584Z,4.70
2019-01-17T14:45:38.975Z,4.60
2019-01-17T14:48:06.174Z,4.60
2019-01-17T14:50:33.397Z,4.60
2019-01-17T14:53:00.624Z,4.50
2019-01-17T14:55:28.011Z,4.50
2019-01-17T14:57:55.364Z,4.50
2019-01-17T15:00:25.305Z,4.50
2019-01-17T15:02:52.621Z,4.50
2019-01-17T15:05:19.965Z,4.50
2019-01-17T15:07:47.347Z,4.50
2019-01-17T15:10:20.463Z,4.50
2019-01-17T15:12:47.811Z,4.50
2019-01-17T15:15:15.153Z,4.50
2019-01-17T15:17:42.525Z,4.50
2019-01-17T15:20:12.527Z,4.50
2019-01-17T15:22:40.157Z,4.50
2019-01-17T15:25:07.589Z,4.50
2019-01-17T15:27:34.953Z,4.50
2019-01-17T15:30:03.378Z,4.50
2019-01-17T15:32:30.745Z,4.40
2019-01-17T15:34:57.985Z,4.40
2019-01-17T15:37:25.370Z,4.40
2019-01-17T15:39:52.843Z,4.30
2019-01-17T15:42:20.120Z,4.30
2019-01-17T15:44:47.431Z,4.20
2019-01-17T15:47:14.832Z,4.20
2019-01-17T15:49:42.245Z,4.10
2019-01-17T15:52:09.571Z,4.00
2019-01-17T15:54:36.904Z,4.00
2019-01-17T15:57:04.291Z,3.90
2019-01-17T15:59:31.739Z,3.80
2019-01-17T16:01:59.175Z,3.70
2019-01-17T16:04:26.851Z,3.70
2019-01-17T16:06:56.199Z,3.70
2019-01-17T16:09:23.409Z,3.60
2019-01-17T16:11:50.664Z,3.60
2019-01-17T16:14:18.003Z,3.50
2019-01-17T16:16:48.323Z,3.50
2019-01-17T16:19:14.598Z,3.40
2019-01-17T16:21:41.911Z,3.40
2019-01-17T16:24:09.139Z,3.40
2019-01-17T16:26:36.370Z,3.40
2019-01-17T16:29:03.770Z,3.50
2019-01-17T16:31:33.035Z,3.50
2019-01-17T16:34:00.349Z,3.50
2019-01-17T16:36:27.577Z,3.50
2019-01-17T16:38:54.913Z,3.50
2019-01-17T16:41:22.347Z,3.50
2019-01-17T16:43:49.765Z,3.50
2019-01-17T16:46:17.211Z,3.40
2019-01-17T16:48:46.025Z,3.40
2019-01-17T16:51:13.386Z,3.40
2019-01-17T16:53:40.758Z,3.40
2019-01-17T16:56:07.986Z,3.30
2019-01-17T16:58:35.908Z,3.30
2019-01-17T17:01:03.330Z,3.20
2019-01-17T17:03:30.778Z,3.20
2019-01-17T17:05:58.097Z,3.20
2019-01-17T17:08:25.503Z,3.20
2019-01-17T17:10:52.809Z,3.20
2019-01-17T17:13:20.309Z,3.20
2019-01-17T17:15:47.607Z,3.10
2019-01-17T17:18:15.115Z,3.10
2019-01-17T17:20:48.288Z,3.10
2019-01-17T17:23:15.659Z,3.10
2019-01-17T17:25:45.375Z,3.10
2019-01-17T17:28:12.715Z,3.00
2019-01-17T17:30:40.100Z,3.10
2019-01-17T17:33:07.466Z,3.00
2019-01-17T17:35:34.762Z,3.10
2019-01-17T17:38:02.305Z,3.10
2019-01-17T17:40:30.079Z,3.10
2019-01-17T17:42:57.384Z,3.10
2019-01-17T17:45:24.926Z,3.10
2019-01-17T17:47:52.761Z,3.10
2019-01-17T17:50:20.990Z,3.10
2019-01-17T17:52:48.428Z,3.10
2019-01-17T17:55:15.762Z,3.10
2019-01-17T17:57:43.106Z,3.20
2019-01-17T18:00:15.725Z,3.20
2019-01-17T18:02:43.116Z,3.20
2019-01-17T18:05:10.552Z,3.20
2019-01-17T18:07:38.013Z,3.20
2019-01-17T18:10:06.912Z,3.20
2019-01-17T18:12:34.492Z,3.20
2019-01-17T18:15:01.880Z,3.20
2019-01-17T18:17:29.194Z,3.20
2019-01-17T18:19:56.544Z,3.20
2019-01-17T18:22:23.779Z,3.20
2019-01-17T18:24:51.166Z,3.20
2019-01-17T18:27:18.538Z,3.10
2019-01-17T18:29:46.010Z,3.20
2019-01-17T18:32:13.348Z,3.20
2019-01-17T18:34:40.732Z,3.20
2019-01-17T18:37:08.086Z,3.20
2019-01-17T18:39:35.429Z,3.20
2019-01-17T18:42:02.833Z,3.20
2019-01-17T18:44:30.232Z,3.20
2019-01-17T18:46:57.752Z,3.20
2019-01-17T18:49:25.435Z,3.20
2019-01-17T18:51:52.729Z,3.20
2019-01-17T18:54:20.822Z,3.20
2019-01-17T18:56:48.388Z,3.20
2019-01-17T18:59:15.683Z,3.10
2019-01-17T19:01:43.057Z,3.20
2019-01-17T19:04:10.516Z,3.10
2019-01-17T19:06:37.944Z,3.10
2019-01-17T19:09:06.869Z,3.10
2019-01-17T19:11:34.160Z,3.00
2019-01-17T19:14:01.572Z,2.90
2019-01-17T19:16:28.970Z,2.70
2019-01-17T19:18:56.368Z,2.60
2019-01-17T19:21:23.814Z,2.50
2019-01-17T19:23:51.249Z,2.40
2019-01-17T19:26:19.958Z,2.30
2019-01-17T19:28:47.370Z,2.30
2019-01-17T19:31:14.747Z,2.30
2019-01-17T19:33:42.143Z,2.30
2019-01-17T19:36:09.580Z,2.20
2019-01-17T19:38:36.943Z,2.20
2019-01-17T19:41:04.317Z,2.20
2019-01-17T19:43:31.675Z,2.20
2019-01-17T19:45:59.153Z,2.20
2019-01-17T19:48:26.653Z,2.20
2019-01-17T19:50:54.122Z,2.20
2019-01-17T19:53:21.571Z,2.20
2019-01-17T19:55:49.013Z,2.30
2019-01-17T19:58:16.600Z,2.30
2019-01-17T20:00:44.335Z,2.30
2019-01-17T20:03:11.742Z,2.30
2019-01-17T20:05:39.370Z,2.30
2019-01-17T20:08:06.725Z,2.30
2019-01-17T20:10:35.352Z,2.30
2019-01-17T20:13:03.345Z,2.40
2019-01-17T20:15:30.729Z,2.40
2019-01-17T20:17:58.107Z,2.40
2019-01-17T20:20:31.676Z,2.40
2019-01-17T20:22:54.803Z,2.30
2019-01-17T20:25:24.134Z,2.20
2019-01-17T20:27:51.537Z,2.20
2019-01-17T20:30:21.029Z,2.20
2019-01-17T20:32:48.571Z,2.10
2019-01-17T20:35:16.577Z,2.10
2019-01-17T20:37:43.980Z,2.10
2019-01-17T20:40:13.580Z,2.10
2019-01-17T20:42:40.938Z,2.10
2019-01-17T20:45:09.514Z,2.10
2019-01-17T20:47:36.783Z,2.20
2019-01-17T20:50:05.947Z,2.20
2019-01-17T20:52:33.344Z,2.20
2019-01-17T20:55:00.701Z,2.30
2019-01-17T20:57:28.243Z,2.30
2019-01-17T20:59:55.663Z,2.30
2019-01-17T21:02:23.084Z,2.30
2019-01-17T21:04:51.371Z,2.30
2019-01-17T21:07:21.156Z,2.40
2019-01-17T21:09:48.500Z,2.30
2019-01-17T21:12:15.890Z,2.30
2019-01-17T21:14:43.376Z,2.30
2019-01-17T21:17:10.747Z,2.40
2019-01-17T21:19:38.102Z,2.30
2019-01-17T21:22:05.504Z,2.30
2019-01-17T21:24:32.896Z,2.30
2019-01-17T21:27:00.239Z,2.30
2019-01-17T21:29:27.588Z,2.30
2019-01-17T21:31:54.974Z,2.30
2019-01-17T21:34:22.428Z,2.30
2019-01-17T21:36:49.829Z,2.20
2019-01-17T21:39:17.446Z,2.20
2019-01-17T21:41:44.753Z,2.10
2019-01-17T21:44:12.105Z,2.10
2019-01-17T21:46:39.424Z,2.10
2019-01-17T21:49:06.818Z,2.00
2019-01-17T21:51:34.165Z,2.00
2019-01-17T21:54:01.574Z,1.90
2019-01-17T21:56:28.922Z,2.10
2019-01-17T21:58:56.357Z,2.10
2019-01-17T22:01:23.720Z,2.10
2019-01-17T22:03:51.038Z,2.10
2019-01-17T22:06:18.395Z,2.10
2019-01-17T22:08:45.782Z,2.10
2019-01-17T22:11:13.139Z,2.10
2019-01-17T22:13:40.566Z,2.20
2019-01-17T22:16:07.948Z,2.20
2019-01-17T22:18:35.324Z,2.20
2019-01-17T22:21:02.704Z,2.20
2019-01-17T22:23:30.083Z,2.20
2019-01-17T22:25:57.430Z,2.20
2019-01-17T22:28:24.742Z,2.20
2019-01-17T22:30:52.022Z,2.20
2019-01-17T22:33:19.388Z,2.20
2019-01-17T22:35:46.748Z,2.20
2019-01-17T22:38:14.129Z,2.20
2019-01-17T22:40:41.443Z,2.10
2019-01-17T22:43:08.776Z,2.10
2019-01-17T22:45:36.127Z,2.10
2019-01-17T22:48:03.590Z,2.00
2019-01-17T22:50:30.960Z,2.00
2019-01-17T22:52:58.277Z,2.00
2019-01-17T22:55:25.713Z,1.90
2019-01-17T22:57:53.176Z,1.90
2019-01-17T23:00:48.455Z,1.90
2019-01-17T23:03:16.064Z,1.80
2019-01-17T23:05:43.328Z,1.80
2019-01-17T23:08:10.694Z,1.80
2019-01-17T23:10:38.066Z,1.70
2019-01-17T23:13:05.368Z,1.70
2019-01-17T23:15:32.704Z,1.70
2019-01-17T23:17:59.956Z,1.70
2019-01-17T23:20:27.324Z,1.70
2019-01-17T23:22:54.678Z,1.70
2019-01-17T23:25:22.012Z,1.70
2019-01-17T23:27:49.426Z,1.70
2019-01-17T23:30:16.814Z,1.70
2019-01-17T23:32:44.204Z,1.80
2019-01-17T23:35:11.523Z,1.80
2019-01-17T23:37:38.946Z,1.80
2019-01-17T23:40:06.309Z,1.80
2019-01-17T23:42:33.633Z,1.80
2019-01-17T23:45:00.944Z,1.80
2019-01-17T23:47:28.293Z,1.80
2019-01-17T23:49:55.639Z,1.70
2019-01-17T23:52:23.112Z,1.70
2019-01-17T23:54:50.443Z,1.70
2019-01-17T23:57:17.821Z,1.70
2019-01-17T23:59:45.249Z,1.70
